Time;durP1;ratioP1;P1;durP2;ratioP2;P2;SDS_P1;SDS_P2;PMS_P1;PMS_P2;Temp;Humidity;BMP_temperature;BMP_pressure;BME280_temperature;BME280_humidity;BME280_pressure;Samples;Min_cycle;Max_cycle;Signal;HPM_P1;HPM_P2
2022/04/03 00:00:32;;;;;;;0.82;0.82;;;-0.10;99.90;;;;;;5060735;28;20202;-85
2022/04/03 00:03:01;;;;;;;0.47;0.45;;;-0.10;99.90;;;;;;5060011;28;20198;-85
2022/04/03 00:05:28;;;;;;;0.30;0.10;;;-0.10;99.90;;;;;;5067418;28;20233;-85
2022/04/03 00:07:55;;;;;;;0.30;0.10;;;-0.10;99.90;;;;;;5064708;28;20709;-84
2022/04/03 00:10:23;;;;;;;0.93;0.40;;;-0.10;99.90;;;;;;5071586;28;20252;-84
2022/04/03 00:12:50;;;;;;;0.95;0.95;;;-0.10;99.90;;;;;;5066071;28;20593;-84
2022/04/03 00:15:18;;;;;;;0.30;0.10;;;-0.20;99.90;;;;;;5070922;28;20204;-84
2022/04/03 00:17:46;;;;;;;0.50;0.50;;;-0.10;99.90;;;;;;5071566;28;20206;-86
2022/04/03 00:20:16;;;;;;;0.30;0.10;;;-0.10;99.90;;;;;;5062866;28;20254;-84
2022/04/03 00:22:48;;;;;;;1.88;1.88;;;-0.20;99.90;;;;;;5063561;28;20235;-84
2022/04/03 00:25:15;;;;;;;0.30;0.20;;;-0.20;99.90;;;;;;5068929;28;20200;-86
2022/04/03 00:27:42;;;;;;;0.30;0.10;;;-0.10;99.90;;;;;;5066018;28;20307;-88
2022/04/03 00:30:10;;;;;;;0.30;0.20;;;-0.10;99.90;;;;;;5065755;28;20536;-86
2022/04/03 00:32:37;;;;;;;0.30;0.20;;;-0.10;99.90;;;;;;5064808;28;20207;-84
2022/04/03 00:35:04;;;;;;;0.30;0.10;;;-0.10;99.90;;;;;;5069873;28;20202;-84
2022/04/03 00:37:33;;;;;;;0.85;0.77;;;-0.10;99.90;;;;;;5060999;28;20706;-85
2022/04/03 00:40:01;;;;;;;0.30;0.10;;;-0.10;99.90;;;;;;5071278;28;20199;-84
2022/04/03 00:42:28;;;;;;;0.30;0.10;;;-0.10;99.90;;;;;;5065394;28;20200;-85
2022/04/03 00:44:56;;;;;;;0.30;0.10;;;-0.10;99.90;;;;;;5064122;28;20242;-84
2022/04/03 00:47:22;;;;;;;1.85;1.85;;;-0.10;99.90;;;;;;5069919;28;20228;-86
2022/04/03 00:49:49;;;;;;;1.65;1.10;;;-0.20;99.90;;;;;;5067376;28;20585;-86
2022/04/03 00:52:17;;;;;;;0.30;0.10;;;-0.20;99.90;;;;;;5068490;28;20203;-86
2022/04/03 00:54:46;;;;;;;0.30;0.20;;;-0.20;99.90;;;;;;5063225;28;20196;-85
2022/04/03 00:57:14;;;;;;;0.30;0.10;;;-0.20;99.90;;;;;;5064656;28;20200;-87
2022/04/03 00:59:43;;;;;;;0.30;0.20;;;-0.20;99.90;;;;;;5069641;28;20208;-85
2022/04/03 01:02:10;;;;;;;0.30;0.10;;;-0.20;99.90;;;;;;5056045;28;20915;-86
2022/04/03 01:04:38;;;;;;;0.35;0.35;;;-0.20;99.90;;;;;;5067575;28;20207;-85
2022/04/03 01:07:05;;;;;;;2.40;0.67;;;-0.20;99.90;;;;;;5058748;28;20224;-84
2022/04/03 01:09:32;;;;;;;0.30;0.10;;;-0.20;99.90;;;;;;5060008;28;20465;-86
2022/04/03 01:12:01;;;;;;;0.30;0.20;;;-0.20;99.90;;;;;;5062798;28;20646;-84
2022/04/03 01:14:32;;;;;;;0.95;0.95;;;-0.20;99.90;;;;;;5067947;28;20344;-84
2022/04/03 01:17:00;;;;;;;0.30;0.10;;;-0.20;99.90;;;;;;5060088;28;20263;-85
2022/04/03 01:19:27;;;;;;;1.65;0.55;;;-0.10;99.90;;;;;;5063469;28;20695;-82
2022/04/03 01:21:54;;;;;;;3.22;1.42;;;-0.10;99.90;;;;;;5063277;28;20204;-85
2022/04/03 01:24:22;;;;;;;0.30;0.10;;;-0.20;99.90;;;;;;5057251;28;20408;-83
2022/04/03 01:26:52;;;;;;;0.30;0.10;;;-0.20;99.90;;;;;;5058216;28;20320;-83
2022/04/03 01:29:19;;;;;;;0.30;0.10;;;-0.20;99.90;;;;;;5065766;28;20195;-83
2022/04/03 01:31:47;;;;;;;0.30;0.10;;;-0.20;99.90;;;;;;5064016;28;20202;-83
2022/04/03 01:34:14;;;;;;;0.30;0.10;;;-0.20;99.90;;;;;;5069746;28;20318;-85
2022/04/03 01:36:41;;;;;;;0.30;0.10;;;-0.20;99.90;;;;;;5056560;28;20200;-84
2022/04/03 01:39:10;;;;;;;0.30;0.10;;;-0.20;99.90;;;;;;5061347;28;20195;-83
2022/04/03 01:41:37;;;;;;;0.30;0.10;;;-0.20;99.90;;;;;;5060463;28;20253;-85
2022/04/03 01:44:06;;;;;;;0.30;0.10;;;-0.10;99.90;;;;;;5061267;28;20291;-84
2022/04/03 01:46:33;;;;;;;0.30;0.10;;;-0.20;99.90;;;;;;5068966;28;20642;-83
2022/04/03 01:49:00;;;;;;;0.30;0.10;;;-0.20;99.90;;;;;;5066624;28;20207;-84
2022/04/03 01:51:27;;;;;;;0.50;0.50;;;-0.20;99.90;;;;;;5069794;28;20204;-86
2022/04/03 01:53:54;;;;;;;0.30;0.10;;;-0.20;99.90;;;;;;5062561;28;20256;-84
2022/04/03 01:56:21;;;;;;;0.30;0.20;;;-0.20;99.90;;;;;;5062886;28;20204;-83
2022/04/03 01:58:48;;;;;;;0.30;0.10;;;-0.20;99.90;;;;;;5069233;28;20193;-83
2022/04/03 02:01:17;;;;;;;0.30;0.10;;;-0.10;99.90;;;;;;5061606;28;20193;-84
2022/04/03 02:03:45;;;;;;;0.30;0.20;;;-0.20;99.90;;;;;;5066916;28;20244;-85
2022/04/03 02:06:13;;;;;;;0.30;0.10;;;-0.20;99.90;;;;;;5056751;28;20233;-84
2022/04/03 02:08:40;;;;;;;0.60;0.60;;;-0.20;99.90;;;;;;5061784;28;20219;-84
2022/04/03 02:11:07;;;;;;;0.30;0.10;;;-0.10;99.90;;;;;;5067587;28;20257;-85
2022/04/03 02:13:34;;;;;;;0.40;0.40;;;-0.20;99.90;;;;;;5060690;28;20642;-83
2022/04/03 02:16:01;;;;;;;0.30;0.10;;;-0.20;99.90;;;;;;5063420;28;20201;-86
2022/04/03 02:18:29;;;;;;;0.30;0.10;;;-0.20;99.90;;;;;;5063316;28;20712;-84
2022/04/03 02:20:56;;;;;;;0.30;0.10;;;-0.20;99.90;;;;;;5064987;28;20253;-83
2022/04/03 02:23:23;;;;;;;0.30;0.20;;;-0.20;99.90;;;;;;5069288;28;20260;-84
2022/04/03 02:25:52;;;;;;;0.85;0.85;;;-0.20;99.90;;;;;;5067008;28;20241;-86
2022/04/03 02:28:19;;;;;;;0.30;0.10;;;-0.20;99.90;;;;;;5060236;28;20220;-84
2022/04/03 02:30:46;;;;;;;0.30;0.10;;;-0.20;99.90;;;;;;5063058;28;20196;-83
2022/04/03 02:33:13;;;;;;;1.17;1.13;;;-0.20;99.90;;;;;;5065554;28;20512;-82
2022/04/03 02:35:41;;;;;;;0.30;0.30;;;-0.20;99.90;;;;;;5058251;28;20199;-83
2022/04/03 02:38:08;;;;;;;0.30;0.20;;;-0.20;99.90;;;;;;5066589;28;20706;-86
2022/04/03 02:40:36;;;;;;;0.80;0.80;;;-0.20;99.90;;;;;;5063537;28;20678;-85
2022/04/03 02:43:03;;;;;;;0.30;0.20;;;-0.20;99.90;;;;;;5069650;28;20211;-85
2022/04/03 02:45:30;;;;;;;0.30;0.10;;;-0.10;99.90;;;;;;5069172;28;20248;-84
2022/04/03 02:47:57;;;;;;;0.30;0.20;;;-0.20;99.90;;;;;;5062031;28;20226;-84
2022/04/03 02:50:27;;;;;;;0.30;0.10;;;-0.20;99.90;;;;;;5054026;28;20202;-86
2022/04/03 02:52:56;;;;;;;0.43;0.43;;;-0.20;99.90;;;;;;5058772;28;20199;-84
2022/04/03 02:55:24;;;;;;;0.30;0.10;;;-0.20;99.90;;;;;;5066974;28;20645;-88
2022/04/03 02:57:52;;;;;;;0.30;0.10;;;-0.10;99.90;;;;;;5069583;28;20655;-84
2022/04/03 03:00:19;;;;;;;0.30;0.17;;;-0.20;99.90;;;;;;5064828;28;20206;-84
2022/04/03 03:02:48;;;;;;;0.30;0.20;;;-0.10;99.90;;;;;;5058725;28;20225;-84
2022/04/03 03:05:15;;;;;;;0.30;0.20;;;-0.10;99.90;;;;;;5062700;28;20650;-85
2022/04/03 03:07:45;;;;;;;0.35;0.20;;;-0.10;99.90;;;;;;5065794;28;20755;-84
2022/04/03 03:10:16;;;;;;;0.30;0.10;;;-0.10;99.90;;;;;;5070451;28;20207;-85
2022/04/03 03:12:44;;;;;;;0.30;0.10;;;-0.10;99.90;;;;;;5073266;28;20563;-82
2022/04/03 03:15:12;;;;;;;0.30;0.20;;;-0.10;99.90;;;;;;5073026;28;20248;-86
2022/04/03 03:17:39;;;;;;;0.30;0.10;;;-0.20;99.90;;;;;;5069326;28;20595;-83
2022/04/03 03:20:07;;;;;;;0.30;0.28;;;-0.10;99.90;;;;;;5063613;28;20272;-85
2022/04/03 03:22:34;;;;;;;0.30;0.22;;;-0.10;99.90;;;;;;5066993;28;20200;-85
2022/04/03 03:25:04;;;;;;;0.30;0.30;;;-0.10;99.90;;;;;;5071745;28;20287;-83
2022/04/03 03:27:32;;;;;;;0.30;0.10;;;-0.20;99.90;;;;;;5061550;28;20300;-83
2022/04/03 03:29:59;;;;;;;0.30;0.20;;;-0.10;99.90;;;;;;5071262;28;20198;-86
2022/04/03 03:32:26;;;;;;;0.30;0.10;;;-0.10;99.90;;;;;;5070157;28;20198;-86
2022/04/03 03:34:54;;;;;;;0.30;0.20;;;-0.10;99.90;;;;;;5064277;28;20880;-85
2022/04/03 03:37:21;;;;;;;0.30;0.10;;;-0.10;99.90;;;;;;5062712;28;20585;-88
2022/04/03 03:39:48;;;;;;;0.30;0.20;;;-0.10;99.90;;;;;;5066953;28;20700;-84
2022/04/03 03:42:15;;;;;;;0.65;0.60;;;-0.10;99.90;;;;;;5057742;28;20202;-85
2022/04/03 03:44:44;;;;;;;0.30;0.10;;;-0.20;99.90;;;;;;5062096;28;20195;-85
2022/04/03 03:47:11;;;;;;;0.63;0.63;;;-0.20;99.90;;;;;;5067271;28;20208;-84
2022/04/03 03:49:39;;;;;;;0.30;0.10;;;-0.20;99.90;;;;;;5056979;28;20194;-83
2022/04/03 03:52:06;;;;;;;0.45;0.45;;;-0.20;99.90;;;;;;5062401;28;20187;-85
2022/04/03 03:54:34;;;;;;;0.30;0.10;;;-0.20;99.90;;;;;;5070687;28;20292;-84
2022/04/03 03:57:01;;;;;;;0.30;0.10;;;-0.20;99.90;;;;;;5070730;28;20256;-84
2022/04/03 03:59:28;;;;;;;0.30;0.10;;;-0.20;99.90;;;;;;5067393;28;20646;-84
2022/04/03 04:01:56;;;;;;;0.30;0.10;;;-0.20;99.90;;;;;;5060753;28;20253;-84
2022/04/03 04:04:23;;;;;;;0.30;0.30;;;-0.20;99.90;;;;;;5066974;28;20324;-85
2022/04/03 04:06:50;;;;;;;0.30;0.20;;;-0.20;99.90;;;;;;5062190;28;20196;-87
2022/04/03 04:09:17;;;;;;;1.23;0.65;;;-0.20;99.90;;;;;;5061728;28;20224;-84
2022/04/03 04:11:44;;;;;;;0.30;0.10;;;-0.20;99.90;;;;;;5058395;28;20203;-84
2022/04/03 04:14:11;;;;;;;0.30;0.20;;;-0.30;99.90;;;;;;5066641;28;20642;-86
2022/04/03 04:16:39;;;;;;;0.30;0.10;;;-0.30;99.90;;;;;;5062203;28;20203;-84
2022/04/03 04:19:08;;;;;;;0.30;0.10;;;-0.30;99.90;;;;;;5062452;28;20232;-84
2022/04/03 04:21:35;;;;;;;0.30;0.20;;;-0.30;99.90;;;;;;5061634;28;20596;-84
2022/04/03 04:24:02;;;;;;;0.30;0.25;;;-0.30;99.90;;;;;;5062804;28;20194;-84
2022/04/03 04:26:29;;;;;;;0.30;0.20;;;-0.30;99.90;;;;;;5057796;28;20199;-85
2022/04/03 04:28:56;;;;;;;0.30;0.10;;;-0.20;99.90;;;;;;5067295;28;20287;-82
2022/04/03 04:31:23;;;;;;;0.30;0.10;;;-0.30;99.90;;;;;;5062609;28;20191;-84
2022/04/03 04:33:50;;;;;;;0.30;0.20;;;-0.20;99.90;;;;;;5066417;28;20279;-84
2022/04/03 04:36:19;;;;;;;0.30;0.10;;;-0.20;99.90;;;;;;5069964;28;20197;-86
2022/04/03 04:38:47;;;;;;;0.45;0.45;;;-0.20;99.90;;;;;;5070250;28;20282;-85
2022/04/03 04:41:14;;;;;;;0.30;0.10;;;-0.20;99.90;;;;;;5068288;28;20252;-85
2022/04/03 04:43:42;;;;;;;0.30;0.10;;;-0.20;99.90;;;;;;5055061;28;20211;-84
2022/04/03 04:46:10;;;;;;;0.30;0.10;;;-0.20;99.90;;;;;;5057548;28;20229;-86
2022/04/03 04:48:36;;;;;;;0.30;0.10;;;-0.10;99.90;;;;;;5065078;28;20932;-84
2022/04/03 04:51:03;;;;;;;0.30;0.10;;;-0.10;99.90;;;;;;5060829;28;20253;-85
2022/04/03 04:53:32;;;;;;;0.30;0.10;;;-0.10;99.90;;;;;;5069030;28;20199;-85
2022/04/03 04:55:59;;;;;;;0.30;0.10;;;-0.10;99.90;;;;;;5062690;28;20203;-84
2022/04/03 04:58:26;;;;;;;0.30;0.10;;;0.00;99.90;;;;;;5055738;28;20203;-85
2022/04/03 05:00:53;;;;;;;0.85;0.50;;;0.00;99.90;;;;;;5054953;28;20197;-84
2022/04/03 05:03:21;;;;;;;0.30;0.10;;;0.00;99.90;;;;;;5063691;28;20275;-84
2022/04/03 05:05:48;;;;;;;0.30;0.10;;;0.10;99.90;;;;;;5060541;28;20288;-84
2022/04/03 05:08:15;;;;;;;0.30;0.20;;;0.10;99.90;;;;;;5055351;28;20226;-84
2022/04/03 05:10:44;;;;;;;0.30;0.10;;;0.10;99.90;;;;;;5069869;28;20246;-86
2022/04/03 05:13:11;;;;;;;0.30;0.10;;;0.10;99.90;;;;;;5056494;28;20249;-82
2022/04/03 05:15:39;;;;;;;0.60;0.57;;;0.10;99.90;;;;;;5049133;28;20279;-82
2022/04/03 05:18:06;;;;;;;0.30;0.10;;;0.10;99.90;;;;;;5060206;28;20202;-82
2022/04/03 05:20:34;;;;;;;0.30;0.10;;;0.10;99.90;;;;;;5043926;28;20306;-84
2022/04/03 05:23:01;;;;;;;1.05;0.35;;;0.10;99.90;;;;;;5042697;28;20514;-84
2022/04/03 05:25:28;;;;;;;0.30;0.10;;;0.20;99.90;;;;;;5041506;28;20215;-85
2022/04/03 05:27:57;;;;;;;0.30;0.10;;;0.20;99.90;;;;;;5050065;28;20300;-83
2022/04/03 05:30:24;;;;;;;0.30;0.20;;;0.20;99.90;;;;;;5053989;28;20555;-85
2022/04/03 05:32:51;;;;;;;0.43;0.30;;;0.20;99.90;;;;;;5064090;28;20605;-85
2022/04/03 05:35:18;;;;;;;0.50;0.50;;;0.20;99.90;;;;;;5055247;28;20200;-82
2022/04/03 05:37:46;;;;;;;0.70;0.70;;;0.20;99.90;;;;;;5050986;28;20261;-83
2022/04/03 05:40:15;;;;;;;0.30;0.10;;;0.20;99.90;;;;;;5048653;28;20651;-82
2022/04/03 05:42:42;;;;;;;0.30;0.20;;;0.30;99.90;;;;;;5061567;28;20199;-84
2022/04/03 05:45:11;;;;;;;0.30;0.10;;;0.30;99.90;;;;;;5043170;28;20836;-82
2022/04/03 05:47:38;;;;;;;0.30;0.10;;;0.40;99.90;;;;;;5050788;28;20511;-84
2022/04/03 05:50:06;;;;;;;0.30;0.10;;;0.50;99.90;;;;;;5042412;28;20206;-82
2022/04/03 05:52:41;;;;;;;0.30;0.10;;;0.60;99.90;;;;;;5038051;28;20256;-82
2022/04/03 05:55:09;;;;;;;0.30;0.10;;;0.60;99.90;;;;;;5040970;28;20213;-84
2022/04/03 05:57:37;;;;;;;0.30;0.20;;;0.70;99.90;;;;;;5041445;28;20196;-82
2022/04/03 06:00:05;;;;;;;0.30;0.20;;;0.60;99.90;;;;;;5062287;28;20217;-84
2022/04/03 06:02:48;;;;;;;0.30;0.20;;;0.50;99.90;;;;;;5067690;28;20196;-84
2022/04/03 06:05:15;;;;;;;0.30;0.10;;;0.50;99.90;;;;;;5053586;28;20648;-83
2022/04/03 06:07:43;;;;;;;0.30;0.10;;;0.50;99.90;;;;;;5056706;28;20194;-82
2022/04/03 06:10:11;;;;;;;0.50;0.38;;;0.60;99.90;;;;;;5059493;28;20673;-83
2022/04/03 06:12:38;;;;;;;0.95;0.82;;;0.60;99.90;;;;;;5062465;28;20206;-82
2022/04/03 06:15:06;;;;;;;0.30;0.17;;;0.60;99.90;;;;;;5062053;28;20272;-84
2022/04/03 06:17:34;;;;;;;0.30;0.10;;;0.60;99.90;;;;;;5055224;28;20747;-85
2022/04/03 06:20:01;;;;;;;0.30;0.10;;;0.50;99.90;;;;;;5062483;28;20231;-83
2022/04/03 06:22:28;;;;;;;0.30;0.20;;;0.60;99.90;;;;;;5056038;28;20287;-85
2022/04/03 06:24:55;;;;;;;0.30;0.20;;;0.60;99.90;;;;;;5057918;28;22046;-80
2022/04/03 06:27:22;;;;;;;0.30;0.20;;;0.60;99.90;;;;;;5067095;28;20190;-82
2022/04/03 06:29:49;;;;;;;0.30;0.20;;;0.70;99.90;;;;;;5057015;28;20215;-82
2022/04/03 06:32:16;;;;;;;0.30;0.10;;;0.70;99.90;;;;;;5073591;28;20252;-83
2022/04/03 06:34:44;;;;;;;0.30;0.10;;;0.80;99.90;;;;;;5057571;28;20199;-82
2022/04/03 06:37:11;;;;;;;0.30;0.10;;;0.90;99.90;;;;;;5059274;28;20580;-83
2022/04/03 06:39:38;;;;;;;0.30;0.20;;;0.80;99.90;;;;;;5065475;28;20658;-82
2022/04/03 06:42:06;;;;;;;0.30;0.10;;;0.90;99.90;;;;;;5066362;28;20862;-84
2022/04/03 06:44:33;;;;;;;0.30;0.17;;;0.90;99.90;;;;;;5057712;28;20690;-82
2022/04/03 06:47:00;;;;;;;0.40;0.20;;;1.00;99.90;;;;;;5054601;28;20250;-84
2022/04/03 06:49:30;;;;;;;0.60;0.40;;;0.90;99.90;;;;;;5058721;28;20311;-82
2022/04/03 06:51:58;;;;;;;0.40;0.30;;;1.00;99.90;;;;;;5059356;28;20208;-84
2022/04/03 06:54:26;;;;;;;0.30;0.20;;;1.10;99.90;;;;;;5062625;28;20202;-85
2022/04/03 06:56:53;;;;;;;0.30;0.10;;;1.30;99.90;;;;;;5059884;28;20273;-82
2022/04/03 06:59:20;;;;;;;0.30;0.10;;;1.50;99.90;;;;;;5057193;28;20204;-82
2022/04/03 07:01:47;;;;;;;1.08;1.08;;;1.60;99.90;;;;;;5049059;28;20784;-85
2022/04/03 07:04:14;;;;;;;0.82;0.82;;;1.50;99.90;;;;;;5068180;28;20207;-82
2022/04/03 07:06:41;;;;;;;0.30;0.10;;;1.60;99.90;;;;;;5056357;28;20205;-83
2022/04/03 07:09:09;;;;;;;0.77;0.77;;;1.70;99.90;;;;;;5063533;28;20258;-83
2022/04/03 07:11:36;;;;;;;0.30;0.10;;;1.70;99.90;;;;;;5063689;28;20463;-85
2022/04/03 07:14:03;;;;;;;0.30;0.20;;;1.70;99.90;;;;;;5067343;28;20488;-85
2022/04/03 07:16:30;;;;;;;1.67;1.55;;;1.60;99.90;;;;;;5061064;28;20656;-82
2022/04/03 07:18:57;;;;;;;0.30;0.10;;;1.80;99.90;;;;;;5061273;28;20270;-82
2022/04/03 07:21:24;;;;;;;0.30;0.20;;;2.00;99.90;;;;;;5068274;28;20207;-82
2022/04/03 07:23:51;;;;;;;0.40;0.25;;;2.00;99.90;;;;;;5054130;28;20651;-82
2022/04/03 07:26:19;;;;;;;0.30;0.20;;;2.10;99.90;;;;;;5061098;28;20542;-83
2022/04/03 07:28:46;;;;;;;0.30;0.10;;;2.20;99.90;;;;;;5063607;28;20225;-83
2022/04/03 07:31:13;;;;;;;0.30;0.20;;;2.50;99.90;;;;;;5062978;28;20251;-84
2022/04/03 07:33:40;;;;;;;0.30;0.20;;;2.60;99.90;;;;;;5061105;28;20246;-83
2022/04/03 07:36:07;;;;;;;0.37;0.30;;;2.80;99.90;;;;;;5066411;28;20523;-83
2022/04/03 07:38:34;;;;;;;1.07;0.87;;;2.70;99.90;;;;;;5067508;28;20468;-80
2022/04/03 07:41:01;;;;;;;0.30;0.20;;;2.70;99.90;;;;;;5060501;28;20460;-83
2022/04/03 07:43:30;;;;;;;0.30;0.20;;;2.70;99.90;;;;;;5063011;28;20947;-84
2022/04/03 07:45:58;;;;;;;0.30;0.30;;;2.50;99.90;;;;;;5062885;28;20461;-84
2022/04/03 07:48:25;;;;;;;0.30;0.10;;;2.50;99.90;;;;;;5057917;28;20890;-82
2022/04/03 07:50:52;;;;;;;0.30;0.10;;;2.60;99.90;;;;;;5051682;28;20456;-82
2022/04/03 07:53:19;;;;;;;0.63;0.63;;;2.70;99.90;;;;;;5058973;28;20930;-82
2022/04/03 07:55:46;;;;;;;1.43;1.43;;;2.80;99.90;;;;;;5061380;28;20464;-85
2022/04/03 07:58:13;;;;;;;0.30;0.10;;;2.70;99.90;;;;;;5059847;28;20462;-84
2022/04/03 08:00:43;;;;;;;0.30;0.30;;;2.80;99.90;;;;;;5061545;28;21044;-81
2022/04/03 08:03:10;;;;;;;0.40;0.27;;;2.70;99.90;;;;;;5063290;28;20803;-83
2022/04/03 08:05:37;;;;;;;0.30;0.10;;;2.90;99.90;;;;;;5057670;28;20975;-82
2022/04/03 08:08:04;;;;;;;0.50;0.40;;;2.90;99.90;;;;;;5057211;28;20512;-83
2022/04/03 08:10:31;;;;;;;0.30;0.20;;;2.90;99.90;;;;;;5063385;28;20472;-84
2022/04/03 08:12:58;;;;;;;0.50;0.50;;;3.40;99.90;;;;;;5057481;28;20864;-83
2022/04/03 08:15:25;;;;;;;2.73;2.53;;;3.40;99.90;;;;;;5056753;28;20481;-83
2022/04/03 08:17:54;;;;;;;0.60;0.60;;;3.50;99.90;;;;;;5055696;28;20468;-86
2022/04/03 08:20:21;;;;;;;0.30;0.10;;;3.70;99.90;;;;;;5056768;28;20584;-83
2022/04/03 08:22:49;;;;;;;0.93;0.93;;;3.60;99.90;;;;;;5050769;28;20456;-86
2022/04/03 08:25:17;;;;;;;2.73;2.50;;;3.50;99.90;;;;;;5060815;28;20513;-83
2022/04/03 08:27:45;;;;;;;1.73;1.70;;;3.60;99.90;;;;;;5046024;28;20527;-83
2022/04/03 08:30:15;;;;;;;0.40;0.30;;;3.60;99.90;;;;;;5076699;28;20508;-83
2022/04/03 08:32:42;;;;;;;0.30;0.20;;;3.60;99.90;;;;;;5051670;28;20531;-83
2022/04/03 08:35:12;;;;;;;0.83;0.83;;;3.80;99.90;;;;;;5066422;28;20512;-83
2022/04/03 08:37:39;;;;;;;0.33;0.17;;;3.70;99.90;;;;;;5046375;28;20541;-83
2022/04/03 08:40:08;;;;;;;1.23;0.50;;;3.40;99.90;;;;;;5053918;28;20474;-86
2022/04/03 08:42:36;;;;;;;2.40;2.30;;;3.40;99.90;;;;;;5048066;28;20443;-84
2022/04/03 08:45:04;;;;;;;0.30;0.17;;;3.60;99.90;;;;;;5052930;28;20513;-83
2022/04/03 08:47:32;;;;;;;0.40;0.33;;;3.80;99.90;;;;;;5049897;28;20518;-83
2022/04/03 08:50:02;;;;;;;0.30;0.10;;;4.10;99.90;;;;;;5049797;28;20480;-83
2022/04/03 08:52:33;;;;;;;0.30;0.20;;;4.00;99.90;;;;;;5060582;28;20437;-86
2022/04/03 08:55:00;;;;;;;0.47;0.47;;;4.40;99.90;;;;;;5036963;28;20477;-87
2022/04/03 08:57:27;;;;;;;1.80;0.47;;;4.90;99.90;;;;;;5059798;28;20447;-82
2022/04/03 08:59:55;;;;;;;0.30;0.10;;;4.90;99.90;;;;;;5067338;28;20521;-84
2022/04/03 09:02:23;;;;;;;0.30;0.20;;;4.90;99.90;;;;;;5056302;28;20465;-82
2022/04/03 09:04:50;;;;;;;0.60;0.60;;;4.70;99.90;;;;;;5043988;28;20536;-83
2022/04/03 09:07:18;;;;;;;0.33;0.20;;;4.60;99.90;;;;;;5054533;28;21099;-83
2022/04/03 09:09:56;;;;;;;0.30;0.20;;;4.60;99.90;;;;;;5053666;28;20532;-82
2022/04/03 09:12:23;;;;;;;0.40;0.37;;;4.50;99.90;;;;;;5054360;28;20508;-86
2022/04/03 09:14:51;;;;;;;0.30;0.20;;;4.50;99.90;;;;;;5059393;28;20494;-82
2022/04/03 09:17:36;;;;;;;1.40;0.63;;;4.50;99.90;;;;;;5064702;28;20447;-81
2022/04/03 09:20:06;;;;;;;0.30;0.10;;;4.50;99.90;;;;;;5065685;28;20542;-83
2022/04/03 09:22:35;;;;;;;0.40;0.30;;;4.30;99.90;;;;;;5057847;28;20477;-86
2022/04/03 09:25:04;;;;;;;0.40;0.23;;;4.30;99.90;;;;;;5065492;28;20456;-88
2022/04/03 09:27:35;;;;;;;0.30;0.10;;;4.10;99.90;;;;;;5071358;28;20435;-82
2022/04/03 09:30:04;;;;;;;0.63;0.63;;;3.90;99.90;;;;;;5057916;28;20516;-84
2022/04/03 09:32:31;;;;;;;0.50;0.50;;;3.60;99.90;;;;;;5067491;28;20486;-84
2022/04/03 09:34:58;;;;;;;0.30;0.30;;;3.60;99.90;;;;;;5047274;28;20479;-86
2022/04/03 09:37:26;;;;;;;0.70;0.70;;;3.50;99.90;;;;;;5060903;28;20834;-84
2022/04/03 09:39:54;;;;;;;0.30;0.10;;;3.40;99.90;;;;;;5060725;28;20455;-83
2022/04/03 09:42:23;;;;;;;0.30;0.10;;;3.70;99.90;;;;;;5063916;28;20456;-85
2022/04/03 09:44:50;;;;;;;0.30;0.20;;;3.90;99.90;;;;;;5063851;28;20936;-84
2022/04/03 09:47:20;;;;;;;0.30;0.10;;;3.70;99.90;;;;;;5059716;28;20846;-87
2022/04/03 09:49:55;;;;;;;0.30;0.20;;;3.50;99.90;;;;;;5055960;28;20494;-83
2022/04/03 09:52:36;;;;;;;0.30;0.10;;;4.00;99.90;;;;;;5052196;28;20455;-86
2022/04/03 09:55:17;;;;;;;1.17;1.17;;;4.30;99.90;;;;;;5057697;28;20532;-82
2022/04/03 09:57:47;;;;;;;1.07;0.40;;;4.20;99.90;;;;;;5047960;28;20463;-84
2022/04/03 10:00:27;;;;;;;0.40;0.20;;;3.70;99.90;;;;;;5051326;28;20554;-84
2022/04/03 10:02:59;;;;;;;0.73;0.73;;;3.50;99.90;;;;;;5058959;28;20451;-83
2022/04/03 10:05:28;;;;;;;0.30;0.20;;;3.70;99.90;;;;;;5049858;28;21012;-82
2022/04/03 10:07:56;;;;;;;0.37;0.27;;;3.80;99.90;;;;;;5044755;28;20933;-83
2022/04/03 10:10:23;;;;;;;0.30;0.10;;;4.00;99.90;;;;;;5053911;28;20542;-85
2022/04/03 10:12:52;;;;;;;0.33;0.17;;;4.20;99.90;;;;;;5060535;28;20876;-84
2022/04/03 10:15:19;;;;;;;1.43;0.60;;;4.70;99.90;;;;;;5063033;28;20464;-82
2022/04/03 10:17:46;;;;;;;0.77;0.77;;;4.60;99.90;;;;;;5069201;28;20830;-83
2022/04/03 10:20:14;;;;;;;0.30;0.20;;;4.60;99.90;;;;;;5049175;28;20534;-84
2022/04/03 10:22:45;;;;;;;0.30;0.20;;;4.60;99.90;;;;;;5054880;28;20505;-84
2022/04/03 10:25:18;;;;;;;0.47;0.47;;;4.30;99.90;;;;;;5054123;28;20448;-83
2022/04/03 10:27:47;;;;;;;0.40;0.37;;;3.90;99.90;;;;;;5060651;28;20461;-82
2022/04/03 10:30:17;;;;;;;0.57;0.57;;;3.60;99.90;;;;;;5053769;28;20506;-84
2022/04/03 10:32:56;;;;;;;0.30;0.20;;;3.60;99.90;;;;;;5055635;28;20464;-83
2022/04/03 10:35:23;;;;;;;0.37;0.27;;;3.50;99.90;;;;;;5061698;28;20539;-82
2022/04/03 10:38:01;;;;;;;0.33;0.23;;;3.10;99.90;;;;;;5038279;28;20468;-84
2022/04/03 10:40:31;;;;;;;0.43;0.43;;;2.60;99.90;;;;;;5046273;28;20931;-88
2022/04/03 10:43:02;;;;;;;0.95;0.85;;;2.20;99.90;;;;;;5051838;28;20522;-85
2022/04/03 10:45:32;;;;;;;0.30;0.10;;;2.20;99.90;;;;;;5052090;28;20294;-83
2022/04/03 10:48:25;;;;;;;0.30;0.20;;;2.50;99.90;;;;;;5048219;28;20906;-84
2022/04/03 10:51:10;;;;;;;0.30;0.10;;;2.70;99.90;;;;;;5049351;28;20938;-82
2022/04/03 10:53:39;;;;;;;0.30;0.10;;;3.20;99.90;;;;;;5057597;28;20467;-84
2022/04/03 10:56:11;;;;;;;0.63;0.50;;;3.80;99.90;;;;;;5067378;28;20451;-84
2022/04/03 10:58:46;;;;;;;0.30;0.20;;;4.30;99.90;;;;;;5044713;28;20514;-82
2022/04/03 11:01:26;;;;;;;0.43;0.40;;;4.30;99.90;;;;;;5053069;28;20523;-80
2022/04/03 11:03:58;;;;;;;0.40;0.40;;;4.40;99.90;;;;;;5052633;28;20528;-82
2022/04/03 11:06:33;;;;;;;0.30;0.10;;;4.90;99.90;;;;;;5049771;28;20510;-81
2022/04/03 11:09:24;;;;;;;0.70;0.50;;;5.40;99.90;;;;;;5048662;28;20815;-81
2022/04/03 11:11:59;;;;;;;0.33;0.17;;;5.10;99.90;;;;;;5048863;28;20492;-80
2022/04/03 11:14:52;;;;;;;0.30;0.13;;;5.00;99.90;;;;;;5064172;28;20921;-79
2022/04/03 11:17:48;;;;;;;0.40;0.30;;;5.40;99.90;;;;;;5044341;28;20457;-80
2022/04/03 11:20:39;;;;;;;0.40;0.30;;;5.30;99.90;;;;;;5063232;28;20483;-80
2022/04/03 11:23:09;;;;;;;0.50;0.50;;;5.40;99.90;;;;;;5056458;28;20543;-81
2022/04/03 11:25:36;;;;;;;0.40;0.20;;;5.10;99.90;;;;;;5063359;28;20487;-80
2022/04/03 11:28:03;;;;;;;0.30;0.20;;;4.50;99.90;;;;;;5048172;28;20464;-81
2022/04/03 11:30:32;;;;;;;1.40;0.90;;;4.30;99.90;;;;;;5059581;28;20878;-81
2022/04/03 11:33:01;;;;;;;0.40;0.33;;;3.90;99.90;;;;;;5059512;28;20541;-81
2022/04/03 11:35:39;;;;;;;0.97;0.97;;;3.60;99.90;;;;;;5060355;28;20444;-82
2022/04/03 11:38:07;;;;;;;0.30;0.20;;;3.50;99.90;;;;;;5070589;28;20541;-79
2022/04/03 11:40:35;;;;;;;0.30;0.10;;;3.30;99.90;;;;;;5060953;28;20517;-80
2022/04/03 11:43:11;;;;;;;0.93;0.80;;;2.70;99.90;;;;;;5067033;28;20552;-80
2022/04/03 11:45:38;;;;;;;0.30;0.10;;;1.90;99.90;;;;;;5061353;28;21049;-80
2022/04/03 11:48:21;;;;;;;0.30;0.10;;;1.50;99.90;;;;;;5064786;28;20496;-79
2022/04/03 11:50:51;;;;;;;0.30;0.10;;;1.30;99.90;;;;;;5065901;28;20222;-81
2022/04/03 11:53:18;;;;;;;0.30;0.20;;;1.20;99.90;;;;;;5063187;28;20647;-81
2022/04/03 11:55:45;;;;;;;0.30;0.10;;;1.20;99.90;;;;;;5063307;28;20208;-82
2022/04/03 11:58:13;;;;;;;0.30;0.20;;;1.20;99.90;;;;;;5054770;28;20625;-81
2022/04/03 12:00:47;;;;;;;0.30;0.20;;;1.40;99.90;;;;;;5062338;28;20192;-83
2022/04/03 12:03:14;;;;;;;0.30;0.10;;;1.80;99.90;;;;;;5060712;28;20490;-81
2022/04/03 12:05:42;;;;;;;1.17;0.77;;;2.00;99.90;;;;;;5062763;28;20205;-81
2022/04/03 12:08:09;;;;;;;0.30;0.10;;;2.10;99.90;;;;;;5067260;28;20468;-80
2022/04/03 12:10:36;;;;;;;0.60;0.47;;;2.20;99.90;;;;;;5058597;28;20887;-82
2022/04/03 12:13:07;;;;;;;0.30;0.10;;;2.40;99.90;;;;;;5063497;28;20514;-81
2022/04/03 12:15:38;;;;;;;0.30;0.10;;;2.50;99.90;;;;;;5061036;28;20460;-80
2022/04/03 12:18:06;;;;;;;1.33;0.67;;;2.60;99.90;;;;;;5058186;28;20494;-80
2022/04/03 12:20:36;;;;;;;0.30;0.20;;;2.70;99.90;;;;;;5060877;28;20495;-83
2022/04/03 12:23:09;;;;;;;0.30;0.10;;;2.90;99.90;;;;;;5065402;28;20552;-83
2022/04/03 12:25:36;;;;;;;0.30;0.10;;;2.90;99.90;;;;;;5064808;28;20459;-82
2022/04/03 12:28:04;;;;;;;0.30;0.20;;;2.80;99.90;;;;;;5066032;28;20453;-80
2022/04/03 12:30:32;;;;;;;0.40;0.30;;;2.80;99.90;;;;;;5061543;28;20503;-82
2022/04/03 12:32:59;;;;;;;0.40;0.30;;;2.80;99.90;;;;;;5064764;28;20529;-79
2022/04/03 12:35:29;;;;;;;1.17;0.50;;;2.80;99.90;;;;;;5070832;28;20512;-80
2022/04/03 12:37:57;;;;;;;0.30;0.10;;;2.80;99.90;;;;;;5068427;28;20473;-79
2022/04/03 12:40:26;;;;;;;0.30;0.17;;;2.70;99.90;;;;;;5062494;28;20546;-79
2022/04/03 12:43:02;;;;;;;0.30;0.20;;;2.70;99.90;;;;;;5064641;28;20904;-79
2022/04/03 12:45:30;;;;;;;1.07;0.30;;;2.80;99.90;;;;;;5062166;28;21047;-86
2022/04/03 12:48:01;;;;;;;0.30;0.10;;;2.80;99.90;;;;;;5056989;28;20471;-81
2022/04/03 12:50:38;;;;;;;0.30;0.30;;;2.90;99.90;;;;;;5070591;28;20565;-82
2022/04/03 12:53:06;;;;;;;0.30;0.20;;;3.20;99.90;;;;;;5061919;28;20465;-84
2022/04/03 12:55:41;;;;;;;0.60;0.53;;;3.40;99.90;;;;;;5057478;28;20467;-82
2022/04/03 12:58:25;;;;;;;0.30;0.10;;;3.60;99.90;;;;;;5055382;28;20475;-82
2022/04/03 13:00:55;;;;;;;0.30;0.20;;;3.80;99.90;;;;;;5060063;28;20494;-81